Time;durP1;ratioP1;P1;durP2;ratioP2;P2;SDS_P1;SDS_P2;PMS_P1;PMS_P2;Temp;Humidity;BMP_temperature;BMP_pressure;BME280_temperature;BME280_humidity;BME280_pressure;Samples;Min_cycle;Max_cycle;Signal;HPM_P1;HPM_P2
2021/03/12 00:00:00;;;;;;;24.70;12.25;;;-1.50;55.60;;;;;;4998606;28;20484;-86
2021/03/12 00:02:26;;;;;;;29.73;12.57;;;-1.40;55.60;;;;;;4999351;28;20140;-85
2021/03/12 00:04:52;;;;;;;28.55;12.45;;;-1.50;55.60;;;;;;4999082;28;20564;-86
2021/03/12 00:07:17;;;;;;;25.77;13.23;;;-1.50;55.60;;;;;;4997787;28;20034;-86
2021/03/12 00:09:43;;;;;;;27.42;13.13;;;-1.50;55.70;;;;;;4998279;28;20390;-87
2021/03/12 00:12:11;;;;;;;24.58;12.73;;;-1.50;55.90;;;;;;4998626;28;20033;-87
2021/03/12 00:14:36;;;;;;;25.02;12.75;;;-1.60;55.80;;;;;;4998865;28;20037;-86
2021/03/12 00:17:02;;;;;;;26.13;12.02;;;-1.60;55.90;;;;;;4998386;28;20101;-86
2021/03/12 00:19:28;;;;;;;28.83;11.35;;;-1.60;55.90;;;;;;4998458;28;20030;-86
2021/03/12 00:21:54;;;;;;;27.02;12.98;;;-1.60;55.80;;;;;;4998890;28;20045;-86
2021/03/12 00:24:20;;;;;;;21.52;10.68;;;-1.60;55.90;;;;;;4997810;28;20061;-85
2021/03/12 00:26:45;;;;;;;25.65;11.18;;;-1.60;55.80;;;;;;4999784;28;20030;-87
2021/03/12 00:29:11;;;;;;;22.95;11.73;;;-1.60;55.80;;;;;;4998444;28;20038;-86
2021/03/12 00:31:37;;;;;;;21.38;10.90;;;-1.60;55.80;;;;;;5001660;28;20030;-85
2021/03/12 00:34:02;;;;;;;24.15;10.55;;;-1.60;55.90;;;;;;4999461;28;20030;-86
2021/03/12 00:36:28;;;;;;;24.30;11.85;;;-1.60;55.80;;;;;;4998116;28;20053;-85
2021/03/12 00:38:54;;;;;;;28.88;11.25;;;-1.60;55.80;;;;;;4997966;28;20274;-85
2021/03/12 00:41:19;;;;;;;22.33;10.77;;;-1.60;55.90;;;;;;4998526;28;20052;-85
2021/03/12 00:43:45;;;;;;;26.70;12.00;;;-1.70;55.90;;;;;;4998323;28;20026;-86
2021/03/12 00:46:12;;;;;;;21.40;10.27;;;-1.70;55.90;;;;;;4997701;28;20022;-85
2021/03/12 00:48:37;;;;;;;26.90;10.68;;;-1.70;56.00;;;;;;4997238;28;20035;-85
2021/03/12 00:51:05;;;;;;;28.08;14.07;;;-1.70;56.00;;;;;;4997781;28;20460;-85
2021/03/12 00:53:31;;;;;;;29.13;12.75;;;-1.70;56.00;;;;;;4998230;28;20027;-85
2021/03/12 00:55:57;;;;;;;33.72;14.35;;;-1.80;56.10;;;;;;4996782;28;20539;-85
2021/03/12 00:58:24;;;;;;;35.97;14.35;;;-1.80;56.10;;;;;;4996965;28;20041;-86
2021/03/12 01:00:50;;;;;;;30.80;11.43;;;-1.80;56.00;;;;;;5001544;28;20596;-85
2021/03/12 01:03:16;;;;;;;27.00;11.02;;;-1.80;56.00;;;;;;5005695;28;20058;-85
2021/03/12 01:05:42;;;;;;;38.75;13.45;;;-1.80;56.00;;;;;;5006099;28;20034;-86
2021/03/12 01:08:10;;;;;;;29.25;13.23;;;-1.80;56.00;;;;;;5004961;28;20098;-86
2021/03/12 01:10:36;;;;;;;27.02;12.80;;;-1.90;56.10;;;;;;4999280;28;20034;-86
2021/03/12 01:13:02;;;;;;;23.95;10.80;;;-1.90;56.20;;;;;;5007301;28;20030;-85
2021/03/12 01:15:28;;;;;;;24.00;10.80;;;-2.00;56.20;;;;;;5005198;28;20057;-85
2021/03/12 01:17:54;;;;;;;23.35;9.20;;;-2.00;56.30;;;;;;5002987;28;20120;-86
2021/03/12 01:20:26;;;;;;;22.20;11.40;;;-2.00;56.30;;;;;;4998733;28;20120;-85
2021/03/12 01:22:55;;;;;;;24.20;10.90;;;-2.00;56.30;;;;;;4996442;28;20035;-86
2021/03/12 01:25:23;;;;;;;40.65;14.27;;;-2.00;56.90;;;;;;4998269;28;20349;-86
2021/03/12 01:27:49;;;;;;;41.50;16.33;;;-2.00;56.30;;;;;;4997902;28;20034;-86
2021/03/12 01:30:39;;;;;;;43.25;16.88;;;-2.00;56.30;;;;;;4997746;28;20460;-86
2021/03/12 01:33:06;;;;;;;27.98;13.60;;;-2.00;56.30;;;;;;4992258;28;20034;-86
2021/03/12 01:35:32;;;;;;;41.20;15.07;;;-2.00;56.20;;;;;;4996356;28;20038;-86
2021/03/12 01:37:58;;;;;;;25.38;12.02;;;-2.00;56.10;;;;;;5001533;28;20030;-86
2021/03/12 01:40:26;;;;;;;28.25;10.55;;;-2.00;56.20;;;;;;5008268;28;20388;-87
2021/03/12 01:42:53;;;;;;;20.27;9.13;;;-2.10;56.30;;;;;;4996693;28;20051;-88
2021/03/12 01:45:46;;;;;;;29.25;11.57;;;-2.10;56.30;;;;;;4996570;28;20022;-87
2021/03/12 01:48:16;;;;;;;26.40;12.18;;;-2.20;56.30;;;;;;4996039;28;20030;-87
2021/03/12 01:50:46;;;;;;;27.80;13.15;;;-2.20;56.30;;;;;;4995749;28;20054;-86
2021/03/12 01:53:16;;;;;;;42.78;16.85;;;-2.20;56.40;;;;;;4996531;28;20388;-86
2021/03/12 01:55:43;;;;;;;73.65;21.63;;;-2.20;56.50;;;;;;4995934;28;20353;-87
2021/03/12 01:58:09;;;;;;;53.30;22.45;;;-2.20;56.50;;;;;;4995454;28;20033;-86
2021/03/12 02:00:35;;;;;;;51.85;20.15;;;-2.20;56.50;;;;;;4995938;28;20018;-87
2021/03/12 02:03:03;;;;;;;76.32;25.35;;;-2.20;56.40;;;;;;4994751;28;20026;-85
2021/03/12 02:05:29;;;;;;;63.85;20.75;;;-2.10;56.30;;;;;;4996780;28;20041;-86
2021/03/12 02:07:55;;;;;;;47.72;17.30;;;-2.10;56.20;;;;;;4995712;28;20031;-86
2021/03/12 02:10:25;;;;;;;42.10;18.70;;;-2.10;56.00;;;;;;4996804;28;20030;-86
2021/03/12 02:13:23;;;;;;;40.58;18.50;;;-2.00;55.90;;;;;;4995882;28;20700;-86
2021/03/12 02:16:12;;;;;;;51.38;19.38;;;-2.00;55.80;;;;;;4998300;28;20077;-85
2021/03/12 02:18:37;;;;;;;57.33;20.98;;;-2.00;55.60;;;;;;5004109;28;20121;-86
2021/03/12 02:21:08;;;;;;;54.13;18.35;;;-2.00;55.40;;;;;;5004302;28;20041;-85
2021/03/12 02:23:53;;;;;;;55.83;20.17;;;-2.00;55.30;;;;;;4995660;28;20092;-86
2021/03/12 02:26:24;;;;;;;52.57;19.27;;;-1.90;55.20;;;;;;4993671;28;20030;-86
2021/03/12 02:28:53;;;;;;;47.55;17.60;;;-1.90;55.00;;;;;;4995937;28;20038;-86
2021/03/12 02:31:20;;;;;;;49.63;17.90;;;-1.90;54.80;;;;;;4989775;28;20026;-86
2021/03/12 02:33:47;;;;;;;47.65;14.82;;;-1.90;54.50;;;;;;4996110;28;20029;-86
2021/03/12 02:36:14;;;;;;;39.03;16.48;;;-1.90;54.30;;;;;;4995790;28;20022;-86
2021/03/12 02:38:40;;;;;;;33.45;13.82;;;-2.00;54.20;;;;;;4995315;28;20041;-86
2021/03/12 02:41:08;;;;;;;25.52;11.52;;;-2.00;54.20;;;;;;4996396;28;20121;-85
2021/03/12 02:43:37;;;;;;;26.05;10.98;;;-2.00;54.20;;;;;;4995953;28;20023;-85
2021/03/12 02:46:04;;;;;;;24.15;9.98;;;-2.00;54.10;;;;;;4999169;28;20053;-84
2021/03/12 02:48:31;;;;;;;29.58;12.32;;;-2.00;54.00;;;;;;5006650;28;20089;-87
2021/03/12 02:50:57;;;;;;;25.45;10.93;;;-2.00;53.90;;;;;;4994278;28;20057;-86
2021/03/12 02:53:24;;;;;;;22.23;9.35;;;-2.00;53.80;;;;;;4999464;28;20092;-87
2021/03/12 02:55:50;;;;;;;25.92;11.60;;;-2.00;53.70;;;;;;5000143;28;20037;-87
2021/03/12 02:58:16;;;;;;;21.48;10.75;;;-2.10;53.60;;;;;;4999865;28;20027;-86
2021/03/12 03:00:43;;;;;;;24.98;11.85;;;-2.10;53.50;;;;;;4999690;28;20049;-85
2021/03/12 03:03:10;;;;;;;43.10;13.40;;;-2.10;53.60;;;;;;5015241;28;20026;-91
2021/03/12 03:05:36;;;;;;;26.65;12.90;;;-2.10;53.60;;;;;;4999810;28;20053;-89
2021/03/12 03:08:04;;;;;;;47.58;19.38;;;-2.10;53.60;;;;;;4999073;28;20547;-90
2021/03/12 03:10:30;;;;;;;39.75;14.43;;;-2.10;53.50;;;;;;4999344;28;20050;-88
2021/03/12 03:12:56;;;;;;;36.17;13.05;;;-2.10;53.30;;;;;;4999531;28;20030;-88
2021/03/12 03:15:25;;;;;;;39.40;15.40;;;-2.20;53.10;;;;;;4999723;28;20022;-89
2021/03/12 03:17:52;;;;;;;37.92;14.90;;;-2.30;53.10;;;;;;4999700;28;20029;-89
2021/03/12 03:20:18;;;;;;;43.08;15.55;;;-2.30;53.10;;;;;;4988942;28;20187;-89
2021/03/12 03:22:45;;;;;;;36.92;15.70;;;-2.40;53.10;;;;;;4988392;28;20023;-90
2021/03/12 03:25:12;;;;;;;56.22;20.65;;;-2.40;53.20;;;;;;5003721;28;20031;-90
2021/03/12 03:27:39;;;;;;;47.08;18.08;;;-2.50;53.30;;;;;;4990223;28;20033;-88
2021/03/12 03:30:13;;;;;;;53.20;18.73;;;-2.50;53.40;;;;;;4985282;28;20026;-88
2021/03/12 03:32:39;;;;;;;62.67;20.40;;;-2.40;53.50;;;;;;4997011;28;20411;-87
2021/03/12 03:35:10;;;;;;;59.28;19.25;;;-2.40;53.30;;;;;;4999351;28;20030;-88
2021/03/12 03:37:37;;;;;;;41.88;14.48;;;-2.40;53.20;;;;;;4999315;28;20026;-88
2021/03/12 03:40:06;;;;;;;47.92;15.63;;;-2.40;53.20;;;;;;4998973;28;20101;-88
2021/03/12 03:42:34;;;;;;;43.47;14.05;;;-2.40;53.00;;;;;;4998206;28;20490;-89
2021/03/12 03:45:01;;;;;;;25.10;10.55;;;-2.40;52.90;;;;;;4992854;28;20030;-88
2021/03/12 03:47:28;;;;;;;25.70;10.88;;;-2.40;52.90;;;;;;5014862;28;20038;-88
2021/03/12 03:49:55;;;;;;;24.95;11.50;;;-2.40;52.80;;;;;;5002454;28;20137;-88
2021/03/12 03:52:23;;;;;;;23.27;9.95;;;-2.40;52.80;;;;;;4998598;28;20391;-89
2021/03/12 03:54:52;;;;;;;26.08;10.65;;;-2.40;52.90;;;;;;4997293;28;20023;-88
2021/03/12 03:57:21;;;;;;;22.55;10.05;;;-2.40;52.80;;;;;;5007775;28;20385;-87
2021/03/12 03:59:48;;;;;;;24.17;10.07;;;-2.30;52.70;;;;;;4997628;28;20041;-86
2021/03/12 04:02:17;;;;;;;41.55;10.85;;;-2.40;52.40;;;;;;4997680;28;20085;-86
2021/03/12 04:04:47;;;;;;;31.90;14.27;;;-2.40;52.50;;;;;;5013985;28;20021;-86
2021/03/12 04:07:14;;;;;;;21.95;9.30;;;-2.40;52.50;;;;;;5003295;28;20034;-87
2021/03/12 04:09:41;;;;;;;19.95;9.27;;;-2.40;52.40;;;;;;5010098;28;20062;-86
2021/03/12 04:12:08;;;;;;;22.85;9.63;;;-2.40;52.20;;;;;;5011290;28;20042;-86
2021/03/12 04:14:36;;;;;;;25.55;10.10;;;-2.40;52.00;;;;;;5009665;28;20027;-86
2021/03/12 04:17:03;;;;;;;23.55;10.90;;;-2.50;52.00;;;;;;5010890;28;20034;-86
2021/03/12 04:19:30;;;;;;;28.58;11.60;;;-2.50;51.70;;;;;;5007532;28;20451;-85
2021/03/12 04:21:57;;;;;;;28.00;9.68;;;-2.50;51.60;;;;;;4998914;28;20053;-85
2021/03/12 04:24:23;;;;;;;29.35;12.27;;;-2.50;51.60;;;;;;5011005;28;20034;-86
2021/03/12 04:26:49;;;;;;;34.78;12.23;;;-2.60;51.40;;;;;;5012995;28;20053;-85
2021/03/12 04:29:16;;;;;;;25.67;11.43;;;-2.60;51.50;;;;;;5010174;28;20026;-85
2021/03/12 04:31:43;;;;;;;30.20;11.88;;;-2.60;51.60;;;;;;5011486;28;20026;-86
2021/03/12 04:34:09;;;;;;;31.38;13.20;;;-2.60;51.50;;;;;;5014235;28;20058;-88
2021/03/12 04:36:36;;;;;;;33.33;13.57;;;-2.50;51.50;;;;;;5012412;28;20018;-86
2021/03/12 04:39:03;;;;;;;46.17;17.48;;;-2.50;51.50;;;;;;5025964;28;20029;-86
2021/03/12 04:41:29;;;;;;;62.17;18.48;;;-2.40;51.60;;;;;;5010095;28;20022;-85
2021/03/12 04:43:55;;;;;;;59.05;20.83;;;-2.40;51.50;;;;;;5010228;28;20030;-87
2021/03/12 04:46:21;;;;;;;48.58;17.65;;;-2.40;51.20;;;;;;5010317;28;20026;-90
2021/03/12 04:48:48;;;;;;;58.65;21.55;;;-2.30;51.20;;;;;;5008378;28;20038;-84
2021/03/12 04:51:14;;;;;;;39.88;16.80;;;-2.30;51.20;;;;;;5008471;28;20066;-87
2021/03/12 04:53:41;;;;;;;48.17;15.88;;;-2.30;51.00;;;;;;5008825;28;20052;-87
2021/03/12 04:56:09;;;;;;;44.30;16.80;;;-2.30;51.00;;;;;;5019623;28;20038;-86
2021/03/12 04:58:37;;;;;;;46.53;15.68;;;-2.30;50.80;;;;;;5006569;28;20053;-86
2021/03/12 05:01:06;;;;;;;47.63;15.52;;;-2.30;50.80;;;;;;5004920;28;20026;-87
2021/03/12 05:03:32;;;;;;;44.47;16.92;;;-2.30;50.60;;;;;;5023350;28;20037;-86
2021/03/12 05:05:58;;;;;;;44.20;15.63;;;-2.30;50.50;;;;;;4994996;28;20026;-85
2021/03/12 05:08:25;;;;;;;37.47;15.55;;;-2.40;50.50;;;;;;4997900;28;20027;-87
2021/03/12 05:11:03;;;;;;;48.42;16.58;;;-2.40;50.50;;;;;;4992319;28;20031;-86
2021/03/12 05:13:28;;;;;;;22.80;10.70;;;-2.30;50.40;;;;;;4989184;28;20396;-87
2021/03/12 05:15:54;;;;;;;22.63;9.98;;;-2.30;50.40;;;;;;4997257;28;20080;-87
2021/03/12 05:18:21;;;;;;;33.58;14.38;;;-2.30;50.30;;;;;;4996560;28;20081;-87
2021/03/12 05:20:48;;;;;;;40.17;14.18;;;-2.30;50.10;;;;;;4996482;28;20026;-87
2021/03/12 05:23:15;;;;;;;64.95;20.98;;;-2.30;50.10;;;;;;4996644;28;20122;-87
2021/03/12 05:25:41;;;;;;;41.50;14.23;;;-2.40;49.80;;;;;;4996467;28;20421;-86
2021/03/12 05:28:08;;;;;;;50.85;18.55;;;-2.30;49.90;;;;;;4995897;28;20386;-87
2021/03/12 05:30:34;;;;;;;39.45;13.88;;;-2.30;49.90;;;;;;4995734;28;20487;-87
2021/03/12 05:33:00;;;;;;;45.40;16.83;;;-2.30;49.80;;;;;;4995450;28;20027;-87
2021/03/12 05:35:26;;;;;;;56.55;17.98;;;-2.20;49.70;;;;;;4996600;28;20217;-87
2021/03/12 05:37:52;;;;;;;62.72;19.50;;;-2.10;49.60;;;;;;4997754;28;20030;-87
2021/03/12 05:40:19;;;;;;;48.17;17.00;;;-2.10;49.60;;;;;;5003934;28;20077;-85
2021/03/12 05:42:45;;;;;;;55.83;19.42;;;-2.00;49.50;;;;;;5006233;28;20030;-86
2021/03/12 05:45:11;;;;;;;70.18;22.83;;;-2.00;49.30;;;;;;5036925;28;20037;-85
2021/03/12 05:47:37;;;;;;;64.90;18.63;;;-1.90;49.30;;;;;;4997536;28;20499;-86
2021/03/12 05:50:05;;;;;;;59.03;18.05;;;-1.80;49.40;;;;;;4997503;28;20026;-88
2021/03/12 05:52:32;;;;;;;85.05;22.92;;;-1.70;49.20;;;;;;5026491;28;20054;-85
2021/03/12 05:55:00;;;;;;;47.90;15.27;;;-1.60;48.50;;;;;;4993993;28;20030;-87
2021/03/12 05:57:25;;;;;;;63.83;17.33;;;-1.60;48.40;;;;;;4994740;28;20022;-84
2021/03/12 05:59:52;;;;;;;43.33;15.02;;;-1.60;48.50;;;;;;4994389;28;20086;-85
2021/03/12 06:02:17;;;;;;;53.88;16.40;;;-1.50;48.50;;;;;;4994566;28;20058;-87
2021/03/12 06:04:47;;;;;;;54.60;16.55;;;-1.50;48.10;;;;;;4994775;28;20050;-88
2021/03/12 06:07:16;;;;;;;69.35;19.98;;;-1.50;48.00;;;;;;4995067;28;20030;-85
2021/03/12 06:09:43;;;;;;;67.38;20.65;;;-1.50;47.80;;;;;;4995356;28;20108;-84
2021/03/12 06:12:11;;;;;;;65.88;17.73;;;-1.40;47.90;;;;;;4994862;28;20030;-86
2021/03/12 06:14:57;;;;;;;67.30;20.38;;;-1.40;48.10;;;;;;4995270;28;20030;-86
2021/03/12 06:17:44;;;;;;;46.47;17.73;;;-1.30;47.90;;;;;;4994565;28;20030;-86
2021/03/12 06:20:16;;;;;;;65.90;21.35;;;-1.20;47.90;;;;;;5001397;28;20133;-85
2021/03/12 06:22:50;;;;;;;57.92;19.42;;;-1.10;47.70;;;;;;4999973;28;20022;-87
2021/03/12 06:25:15;;;;;;;46.60;15.80;;;-1.10;47.50;;;;;;5000497;28;20029;-85
2021/03/12 06:27:42;;;;;;;55.95;16.27;;;-1.10;47.40;;;;;;4998124;28;20031;-86
2021/03/12 06:30:08;;;;;;;54.88;17.42;;;-1.10;47.40;;;;;;4995134;28;20034;-86
2021/03/12 06:32:49;;;;;;;56.92;15.88;;;-1.00;47.30;;;;;;5025924;28;20438;-86
2021/03/12 06:35:20;;;;;;;51.60;14.50;;;-0.90;46.80;;;;;;5025798;28;20125;-86
2021/03/12 06:37:47;;;;;;;44.45;14.93;;;-0.90;46.60;;;;;;4996260;28;20611;-86
2021/03/12 06:40:23;;;;;;;60.78;17.90;;;-0.80;46.80;;;;;;5005683;28;20026;-85
2021/03/12 06:43:25;;;;;;;41.97;11.93;;;-0.70;46.50;;;;;;5006526;28;20030;-85
2021/03/12 06:45:56;;;;;;;52.38;15.27;;;-0.60;45.90;;;;;;4991904;28;20039;-86
2021/03/12 06:48:34;;;;;;;34.33;11.85;;;-0.60;45.50;;;;;;4994346;28;20126;-87
2021/03/12 06:51:02;;;;;;;48.53;13.23;;;-0.70;44.90;;;;;;4994560;28;20043;-86
2021/03/12 06:53:32;;;;;;;47.15;12.57;;;-0.70;44.80;;;;;;4995701;28;20037;-90
2021/03/12 06:56:02;;;;;;;33.78;8.98;;;-0.70;44.60;;;;;;4995584;28;20380;-82
2021/03/12 06:58:28;;;;;;;26.38;7.82;;;-0.70;44.70;;;;;;4994972;28;20035;-84
2021/03/12 07:00:54;;;;;;;27.17;7.95;;;-0.70;44.30;;;;;;4994537;28;20026;-83
2021/03/12 07:03:21;;;;;;;16.02;6.38;;;-0.60;43.80;;;;;;4993639;28;20037;-87
2021/03/12 07:06:16;;;;;;;38.42;9.15;;;-0.70;43.40;;;;;;5020153;28;20117;-86
2021/03/12 07:08:47;;;;;;;30.83;9.27;;;-0.60;43.20;;;;;;4993455;28;20133;-86
2021/03/12 07:11:26;;;;;;;56.08;15.25;;;-0.60;43.50;;;;;;4994087;28;20062;-89
2021/03/12 07:13:55;;;;;;;43.83;11.18;;;-0.60;43.10;;;;;;4996303;28;20437;-88
2021/03/12 07:16:24;;;;;;;19.00;7.15;;;-0.60;42.80;;;;;;5002104;28;20026;-87
2021/03/12 07:18:50;;;;;;;17.80;6.75;;;-0.50;43.00;;;;;;4995045;28;20076;-87
2021/03/12 07:21:19;;;;;;;13.80;6.10;;;-0.50;42.50;;;;;;4993613;28;20035;-87
2021/03/12 07:23:47;;;;;;;15.50;6.78;;;-0.50;42.40;;;;;;4993130;28;20387;-87
2021/03/12 07:26:15;;;;;;;15.02;7.30;;;-0.40;42.50;;;;;;4993217;28;20031;-87
2021/03/12 07:28:43;;;;;;;15.32;5.85;;;-0.40;42.40;;;;;;4994966;28;20089;-87
2021/03/12 07:31:14;;;;;;;17.83;5.75;;;-0.40;41.80;;;;;;4994734;28;20039;-87
2021/03/12 07:33:50;;;;;;;17.58;6.93;;;-0.40;41.50;;;;;;4994662;28;20045;-88
2021/03/12 07:36:26;;;;;;;21.20;6.45;;;-0.40;41.20;;;;;;4998745;28;20041;-87
2021/03/12 07:38:56;;;;;;;20.02;7.18;;;-0.40;41.40;;;;;;4998062;28;20030;-87
2021/03/12 07:41:21;;;;;;;19.80;7.30;;;-0.20;41.60;;;;;;4997705;28;20033;-86
2021/03/12 07:43:49;;;;;;;27.42;8.32;;;0.00;41.50;;;;;;4997647;28;20023;-87
2021/03/12 07:46:16;;;;;;;46.47;10.43;;;0.20;41.00;;;;;;4997426;28;20030;-86
2021/03/12 07:48:42;;;;;;;42.95;11.98;;;0.20;40.40;;;;;;4997034;28;20089;-87
2021/03/12 07:51:13;;;;;;;29.17;11.77;;;0.20;40.20;;;;;;4997096;28;20042;-87
2021/03/12 07:53:51;;;;;;;42.33;14.70;;;0.20;40.20;;;;;;4979364;28;20129;-86
2021/03/12 07:56:43;;;;;;;41.45;13.73;;;0.20;40.20;;;;;;4999832;28;20030;-87
2021/03/12 07:59:08;;;;;;;23.95;8.70;;;0.20;39.90;;;;;;5001046;28;20042;-87
2021/03/12 08:02:04;;;;;;;25.15;10.27;;;0.30;39.80;;;;;;5002172;28;20023;-87
2021/03/12 08:04:34;;;;;;;30.27;10.32;;;0.20;39.70;;;;;;4990795;28;20042;-87
2021/03/12 08:07:20;;;;;;;32.47;11.50;;;0.30;39.90;;;;;;4997599;28;20030;-85
2021/03/12 08:09:51;;;;;;;21.67;7.32;;;0.30;39.70;;;;;;4997384;28;20122;-87
2021/03/12 08:12:37;;;;;;;35.40;10.30;;;0.30;39.40;;;;;;5012532;28;20038;-87
2021/03/12 08:15:12;;;;;;;31.65;9.45;;;0.40;39.50;;;;;;4996804;28;20031;-89
2021/03/12 08:17:38;;;;;;;37.72;10.48;;;0.40;39.50;;;;;;4996001;28;20026;-87
2021/03/12 08:20:22;;;;;;;19.17;8.20;;;0.40;39.60;;;;;;4995893;28;20019;-86
2021/03/12 08:22:52;;;;;;;32.63;10.03;;;0.60;39.80;;;;;;4995886;28;20029;-86
2021/03/12 08:25:35;;;;;;;18.60;6.65;;;0.70;39.80;;;;;;4991175;28;20259;-86
2021/03/12 08:28:07;;;;;;;26.15;6.90;;;0.80;39.40;;;;;;4994921;28;20070;-85
2021/03/12 08:30:33;;;;;;;38.42;12.18;;;0.80;39.20;;;;;;4995151;28;20084;-86
2021/03/12 08:33:00;;;;;;;38.13;12.50;;;0.90;39.30;;;;;;4995643;28;20027;-84
2021/03/12 08:35:36;;;;;;;31.17;9.13;;;1.00;39.50;;;;;;4994039;28;20080;-85
2021/03/12 08:38:05;;;;;;;40.60;10.60;;;1.20;39.40;;;;;;4992638;28;20503;-85
2021/03/12 08:40:32;;;;;;;41.47;10.45;;;1.30;39.10;;;;;;5016287;28;20035;-87
2021/03/12 08:43:07;;;;;;;27.98;9.20;;;1.50;39.30;;;;;;4989942;28;20026;-85
2021/03/12 08:45:33;;;;;;;;;;;1.70;39.10;;;;;;5016718;28;20358;-86
2021/03/12 08:48:07;;;;;;;31.40;8.80;;;2.00;39.20;;;;;;4995969;28;19921;-85
2021/03/12 08:50:57;;;;;;;47.60;11.40;;;2.50;39.00;;;;;;4999240;28;20035;-86
2021/03/12 08:53:25;;;;;;;40.38;9.93;;;2.90;38.40;;;;;;4994905;28;20038;-86
2021/03/12 08:55:55;;;;;;;41.78;10.40;;;3.20;37.50;;;;;;4997912;28;20022;-86
2021/03/12 08:58:23;;;;;;;32.38;9.25;;;3.30;37.10;;;;;;4990288;28;20026;-85
2021/03/12 09:00:57;;;;;;;41.08;9.40;;;3.50;37.20;;;;;;4995029;28;20038;-86
2021/03/12 09:03:27;;;;;;;39.15;11.02;;;3.80;37.20;;;;;;4990298;28;20022;-87
2021/03/12 09:06:04;;;;;;;37.33;10.48;;;4.30;37.20;;;;;;4994563;28;20448;-87
2021/03/12 09:08:32;;;;;;;49.95;13.02;;;4.90;36.50;;;;;;4994714;28;20046;-87
2021/03/12 09:11:00;;;;;;;66.40;16.77;;;5.50;36.30;;;;;;4994811;28;20069;-86
2021/03/12 09:13:31;;;;;;;43.00;9.85;;;6.00;35.20;;;;;;4994514;28;20029;-88
2021/03/12 09:15:58;;;;;;;42.38;11.50;;;6.40;34.40;;;;;;4994610;28;20026;-86
2021/03/12 09:18:26;;;;;;;34.85;9.65;;;6.50;33.70;;;;;;4993961;28;20030;-86
2021/03/12 09:20:54;;;;;;;11.07;5.80;;;6.60;33.70;;;;;;4994217;28;20033;-86
2021/03/12 09:23:32;;;;;;;18.33;7.22;;;6.60;33.20;;;;;;4994958;28;20391;-87
2021/03/12 09:25:58;;;;;;;26.75;8.55;;;6.40;32.90;;;;;;4996362;28;20058;-87
2021/03/12 09:28:28;;;;;;;51.45;10.88;;;6.20;33.10;;;;;;5001905;28;20042;-86
2021/03/12 09:30:54;;;;;;;39.17;9.82;;;6.00;33.10;;;;;;5000986;28;20026;-87
2021/03/12 09:33:53;;;;;;;29.00;9.07;;;5.80;33.70;;;;;;4996229;28;20118;-86
2021/03/12 09:36:39;;;;;;;14.00;6.82;;;5.60;33.60;;;;;;4983680;28;20124;-85
2021/03/12 09:39:08;;;;;;;12.18;5.70;;;5.30;33.80;;;;;;4996452;28;20026;-86
2021/03/12 09:41:34;;;;;;;13.93;6.50;;;5.00;34.00;;;;;;4997648;28;20030;-87
2021/03/12 09:44:13;;;;;;;16.15;6.22;;;4.90;34.40;;;;;;4997048;28;20034;-86
2021/03/12 09:46:44;;;;;;;23.85;8.02;;;4.70;34.70;;;;;;4997777;28;20022;-86
2021/03/12 09:49:17;;;;;;;21.38;6.63;;;4.60;35.00;;;;;;4995590;28;20033;-87
2021/03/12 09:51:45;;;;;;;19.70;7.80;;;4.60;35.30;;;;;;4994888;28;20053;-86
2021/03/12 09:54:13;;;;;;;15.68;6.75;;;4.70;35.50;;;;;;5025882;28;20032;-86
2021/03/12 09:56:50;;;;;;;17.85;6.90;;;4.80;35.60;;;;;;4993679;28;20027;-87
2021/03/12 09:59:27;;;;;;;10.35;5.28;;;4.80;35.40;;;;;;4994895;28;20034;-86
2021/03/12 10:01:54;;;;;;;17.20;5.93;;;4.60;35.50;;;;;;4994814;28;20042;-87
2021/03/12 10:04:29;;;;;;;13.45;6.78;;;4.30;35.60;;;;;;4994280;28;20034;-87
2021/03/12 10:07:09;;;;;;;14.95;6.00;;;4.20;36.20;;;;;;4994651;28;20034;-87
2021/03/12 10:09:40;;;;;;;25.65;7.18;;;4.00;36.50;;;;;;4994252;28;20041;-87
2021/03/12 10:12:14;;;;;;;28.13;8.77;;;3.90;37.00;;;;;;4994546;28;20030;-87
2021/03/12 10:14:42;;;;;;;12.35;6.35;;;3.90;37.30;;;;;;5011285;28;20030;-87
2021/03/12 10:17:10;;;;;;;11.70;5.65;;;4.00;37.50;;;;;;4999407;28;20034;-86
2021/03/12 10:20:20;;;;;;;15.40;6.78;;;4.00;37.50;;;;;;4996484;28;20121;-87
2021/03/12 10:22:51;;;;;;;19.05;7.28;;;3.90;37.50;;;;;;4989497;28;20066;-86
2021/03/12 10:25:29;;;;;;;14.48;6.35;;;3.90;37.80;;;;;;4974534;28;20027;-86
2021/03/12 10:27:59;;;;;;;26.27;9.55;;;3.80;37.90;;;;;;4974497;28;20027;-86
2021/03/12 10:30:29;;;;;;;22.17;8.90;;;3.80;38.20;;;;;;4993533;28;20036;-87
2021/03/12 10:33:04;;;;;;;34.30;8.65;;;3.70;38.40;;;;;;4993994;28;20026;-86
2021/03/12 10:35:34;;;;;;;;;;;3.70;39.20;;;;;;4994418;28;20030;-87
2021/03/12 10:38:20;;;;;;;12.73;5.88;;;3.60;38.60;;;;;;4993736;28;19906;-86
2021/03/12 10:41:14;;;;;;;16.23;6.35;;;3.50;38.80;;;;;;4993401;28;20038;-86
2021/03/12 10:43:40;;;;;;;17.85;7.32;;;3.30;39.30;;;;;;4994050;28;20027;-86
2021/03/12 10:46:08;;;;;;;17.30;8.05;;;3.20;39.70;;;;;;4994128;28;20367;-86
2021/03/12 10:48:41;;;;;;;23.35;8.55;;;3.00;39.80;;;;;;4993744;28;20477;-86
2021/03/12 10:51:08;;;;;;;37.97;10.13;;;2.90;40.10;;;;;;4993937;28;20488;-86
2021/03/12 10:53:49;;;;;;;35.00;12.00;;;2.70;40.50;;;;;;4994219;28;20033;-85
2021/03/12 10:56:16;;;;;;;27.40;9.80;;;2.60;40.90;;;;;;4994383;28;20361;-87
2021/03/12 10:58:42;;;;;;;42.45;10.52;;;2.50;41.20;;;;;;4993129;28;20030;-87
2021/03/12 11:01:27;;;;;;;19.23;7.30;;;2.50;41.40;;;;;;4992682;28;20038;-87
2021/03/12 11:03:55;;;;;;;22.92;7.65;;;2.40;41.60;;;;;;4994355;28;20109;-87
2021/03/12 11:06:26;;;;;;;26.83;10.07;;;2.30;41.80;;;;;;4994314;28;20122;-87
2021/03/12 11:08:52;;;;;;;38.97;10.50;;;2.30;42.10;;;;;;4994702;28;20101;-87
2021/03/12 11:11:21;;;;;;;39.92;12.80;;;2.30;42.30;;;;;;4997253;28;20027;-87
2021/03/12 11:13:47;;;;;;;44.60;14.38;;;2.20;42.30;;;;;;4997895;28;20027;-86
2021/03/12 11:16:13;;;;;;;41.25;13.85;;;2.20;42.40;;;;;;4998577;28;20502;-87
2021/03/12 11:18:39;;;;;;;50.47;15.88;;;2.20;42.60;;;;;;4998085;28;20034;-87
2021/03/12 11:21:07;;;;;;;34.42;12.20;;;2.10;42.70;;;;;;5006705;28;20026;-86
2021/03/12 11:23:33;;;;;;;39.20;12.88;;;2.10;42.90;;;;;;5005768;28;20033;-86
2021/03/12 11:25:59;;;;;;;37.03;10.77;;;2.20;43.00;;;;;;5003762;28;20036;-86
2021/03/12 11:28:26;;;;;;;42.60;10.75;;;2.30;42.90;;;;;;5002158;28;20550;-87
2021/03/12 11:30:53;;;;;;;37.05;11.50;;;2.20;42.90;;;;;;4997064;28;20029;-87
2021/03/12 11:33:19;;;;;;;30.25;11.85;;;2.20;43.00;;;;;;4996740;28;20419;-87
2021/03/12 11:35:44;;;;;;;39.22;12.23;;;2.10;43.10;;;;;;4996387;28;20030;-87
2021/03/12 11:38:10;;;;;;;43.47;13.68;;;2.10;43.40;;;;;;4997750;28;20042;-86
2021/03/12 11:40:37;;;;;;;45.97;17.23;;;2.10;43.60;;;;;;4998245;28;20030;-86
2021/03/12 11:43:04;;;;;;;44.70;16.92;;;2.00;43.80;;;;;;4999950;28;20030;-86
2021/03/12 11:45:30;;;;;;;34.53;9.75;;;2.00;43.90;;;;;;4999405;28;20030;-87
2021/03/12 11:47:58;;;;;;;33.30;10.38;;;2.00;44.00;;;;;;4996526;28;20031;-86
2021/03/12 11:50:25;;;;;;;40.10;11.20;;;2.00;44.00;;;;;;4997888;28;20032;-87
2021/03/12 11:52:51;;;;;;;32.65;12.23;;;2.00;44.10;;;;;;4997923;28;20504;-87
2021/03/12 11:55:17;;;;;;;26.80;9.93;;;2.00;44.20;;;;;;4997117;28;20026;-88
2021/03/12 11:57:44;;;;;;;30.65;10.75;;;2.00;44.30;;;;;;4997666;28;20133;-86
2021/03/12 12:00:13;;;;;;;28.95;11.50;;;2.00;44.30;;;;;;4997435;28;20122;-86
2021/03/12 12:02:40;;;;;;;39.63;14.00;;;2.00;44.50;;;;;;4997245;28;20027;-88
2021/03/12 12:05:08;;;;;;;29.30;11.52;;;2.00;44.80;;;;;;4997616;28;20030;-87
2021/03/12 12:07:34;;;;;;;31.30;11.88;;;2.00;44.90;;;;;;4996082;28;20034;-87
2021/03/12 12:10:00;;;;;;;28.35;10.55;;;2.10;44.90;;;;;;4995071;28;20384;-86
2021/03/12 12:12:26;;;;;;;35.95;10.68;;;2.10;44.90;;;;;;4997279;28;20038;-86
2021/03/12 12:14:53;;;;;;;38.80;12.38;;;2.10;44.70;;;;;;4996168;28;20027;-86
2021/03/12 12:17:18;;;;;;;41.90;13.57;;;2.00;44.80;;;;;;4996762;28;20026;-87
2021/03/12 12:19:46;;;;;;;30.60;10.40;;;2.00;45.00;;;;;;4996024;28;20503;-88
2021/03/12 12:22:12;;;;;;;29.45;12.02;;;2.00;45.20;;;;;;4996225;28;20030;-87
2021/03/12 12:24:40;;;;;;;44.45;13.80;;;2.00;45.10;;;;;;4996673;28;20038;-87
2021/03/12 12:27:09;;;;;;;35.72;13.27;;;1.90;45.30;;;;;;4995800;28;20153;-87
2021/03/12 12:29:35;;;;;;;30.38;10.65;;;1.90;45.60;;;;;;4995659;28;20124;-86
2021/03/12 12:32:01;;;;;;;37.25;12.25;;;1.80;45.60;;;;;;4997019;28;20034;-87
2021/03/12 12:34:27;;;;;;;34.95;11.88;;;1.80;45.80;;;;;;4996329;28;20037;-88
2021/03/12 12:36:55;;;;;;;27.05;11.80;;;1.70;46.50;;;;;;4995955;28;20034;-90
2021/03/12 12:39:22;;;;;;;24.63;10.32;;;1.70;45.90;;;;;;4994452;28;20109;-87
2021/03/12 12:41:48;;;;;;;35.00;10.80;;;1.80;46.20;;;;;;4994605;28;20472;-88
2021/03/12 12:44:15;;;;;;;41.78;13.45;;;1.80;46.40;;;;;;4994527;28;20036;-89